PKWA

Details ICAO PKWA (KWA)
Name BUCHOLZ AAF
Region Marshall Islands
Timezone Pacific/Kwajalein (UTC+12.0)
Plans Departing 14
Arriving 19
Stats Elevation 9 ft / 3 m (AMSL)
Location 8.720121° 167.731662°
Runways 1
Magnetic Variation 7.617° E
Sunrise 2017-12-10 18:54:49 UTC / 2017-12-11 06:54:49 Local
Sunset 2017-12-11 06:32:20 UTC / 2017-12-11 18:32:20 Local
Advertisement - Login to hide

Runways

ID Width Length Bearing (true) Bearing (mag) Surface Threshold Offset Overrun Length
06 198 ft / 60 m 6,666 ft / 2,032 m 72.67° 65.05° Asphalt 0 ft / 0 m 0 ft / 0 m
24 198 ft / 60 m 6,666 ft / 2,032 m 252.67° 245.05° Asphalt 0 ft / 0 m 0 ft / 0 m

Map

Weather


0- 5 10 15 20 25 30 35+ Temperature / ° C

Clouds and Precipitation
Forecast for 2017-12-11 06:00 UTC. Updated 39 minutes ago

Ground ~20,000 ft ~40,000 ft Winds

METAR

PKWA 110540Z AUTO 08017G21KT 10SM SCT025 SCT034 30/24 A2977 RMK AO2 T02950239

TAF

TAF PKWA 110525Z 1106/1206 07019KT P6SM VCSH FEW018 SCT030 SCT120

Frequencies

Tower 126.20 MHz KWAJALEIN TWR
Approach 126.20 MHz KWAJALEIN APP
Warning: Do not use this data for real-world aviation or navigation. No guarantee of current accuracy is given.